Latest Weather Observations for Port Macquarie Airport

IDN60801

Issued at 7:12 am EDT Wednesday 24 October 2018 (issued every 10 minutes, with the page automatically refreshed every 10 minutes)

About weather observations | Map of weather stations | Latest weather observations for NSW | Other Formats
Station Details ID: 060139 Name: PORT MACQUARIE AIRPORT AWS Lat: -31.43 Lon: 152.87 Height: 4.2 m
Data from the previous 72 hours. | See also: Recent months at Port Macquarie Airport
Date/Time
EDT
Temp
°C
App
Temp
°C
Dew
Point
°C
Rel
Hum
%
Delta-T
°C
Wind Press
QNH
hPa
Press
MSL
hPa
Rain since
9am
mm
Dir  Spd
km/h
Gust
km/h
Spd
kts
Gust
kts
24/07:00am 17.3 18.5 17.3 100 0.0 N 7 9 4 5 1014.4 1014.4 0.0
24/06:43am 16.9 18.9 16.9 100 0.0 NNW 2 6 1 3 1014.2 1014.2 0.0
24/06:41am 16.8 18.7 16.8 100 0.0 NNW 2 6 1 3 1014.2 1014.2 0.0
24/06:30am 16.5 17.6 16.5 100 0.0 N 6 7 3 4 1014.0 1014.0 0.0
24/06:00am 16.7 17.8 16.7 100 0.0 NNW 6 9 3 5 1013.7 1013.7 0.0
24/05:30am 17.1 18.2 17.1 100 0.0 NW 7 9 4 5 1013.5 1013.5 0.0
24/05:00am 17.3 19.4 17.3 100 0.0 NW 2 9 1 5 1013.2 1013.2 0.0
24/04:30am 17.0 18.2 16.8 99 0.1 N 6 7 3 4 1013.0 1013.0 0.0
24/04:00am 17.5 18.7 17.3 99 0.1 NNE 7 9 4 5 1013.0 1013.0 0.0
24/03:30am 16.8 17.7 16.6 99 0.1 NW 7 7 4 4 1013.1 1013.1 0.0
24/03:00am 17.4 18.7 17.2 99 0.1 N 6 6 3 3 1013.2 1013.2 0.0
24/02:34am 16.9 18.0 16.6 98 0.2 NNW 6 7 3 4 1013.5 1013.5 0.0
24/02:31am 17.1 18.3 16.8 98 0.2 NNW 6 6 3 3 1013.5 1013.5 0.0
24/02:30am 17.2 18.4 16.9 98 0.2 NNW 6 6 3 3 1013.5 1013.5 0.0
24/02:23am 17.3 18.6 17.0 98 0.2 N 6 7 3 4 1013.6 1013.6 0.0
24/02:07am 17.9 19.3 17.7 99 0.1 N 7 9 4 5 1013.7 1013.7 0.0
24/02:02am 18.4 20.0 18.2 99 0.1 N 7 9 4 5 1013.8 1013.8 0.0
24/02:00am 18.4 20.0 18.2 99 0.1 N 7 9 4 5 1013.8 1013.8 0.0
24/01:45am 16.9 18.0 16.6 98 0.2 NNW 6 7 3 4 1013.9 1013.9 0.0
24/01:30am 17.9 19.2 17.6 98 0.2 N 7 9 4 5 1014.0 1014.0 0.0
24/01:25am 18.1 19.7 17.8 98 0.2 N 6 9 3 5 1014.1 1014.1 0.0
24/01:09am 17.2 18.3 16.7 97 0.3 NNW 6 6 3 3 1014.3 1014.3 0.0
24/01:00am 17.5 18.7 16.9 96 0.4 NNW 6 7 3 4 1014.4 1014.4 0.0
24/12:30am 18.3 19.8 17.7 96 0.4 N 6 7 3 4 1014.9 1014.9 0.0
24/12:00am 18.9 20.1 18.2 96 0.4 NNE 9 11 5 6 1015.1 1015.1 0.0
 
Date/Time
EDT
Temp
°C
App
Temp
°C
Dew
Point
°C
Rel
Hum
%
Delta-T
°C
Wind Press
QNH
hPa
Press
MSL
hPa
Rain since
9am
mm
Dir  Spd
km/h
Gust
km/h
Spd
kts
Gust
kts
23/11:30pm 18.5 19.9 17.3 93 0.7 N 6 9 3 5 1015.3 1015.3 0.0
23/11:00pm 19.1 20.5 17.9 93 0.7 N 7 9 4 5 1015.3 1015.3 0.0
23/10:30pm 19.7 20.6 18.4 92 0.8 NNE 11 15 6 8 1015.4 1015.4 0.0
23/10:00pm 20.2 21.1 18.5 90 1.1 NNE 11 15 6 8 1015.5 1015.5 0.0
23/09:30pm 20.2 20.7 18.3 89 1.2 NNE 13 15 7 8 1015.4 1015.4 0.0
23/09:00pm 20.6 21.0 18.2 86 1.5 NNE 13 19 7 10 1015.2 1015.2 0.0
23/08:30pm 20.9 21.0 18.3 85 1.6 NNE 15 24 8 13 1014.9 1014.9 0.0
23/08:00pm 21.1 21.2 18.3 84 1.7 NNE 15 20 8 11 1014.5 1014.5 0.0
23/07:30pm 21.4 21.5 18.4 83 1.9 NNE 15 19 8 10 1014.2 1014.2 0.0
23/07:00pm 21.8 21.6 18.6 82 2.0 NNE 17 22 9 12 1013.8 1013.8 0.0
23/06:30pm 22.3 21.5 18.5 79 2.4 NNE 20 26 11 14 1013.4 1013.4 0.0
23/06:00pm 23.1 22.9 18.4 75 3.0 NE 17 24 9 13 1013.1 1013.1 0.0
23/05:30pm 23.6 22.9 18.7 74 3.1 NE 20 28 11 15 1012.9 1012.9 0.0
23/05:00pm 23.4 22.7 18.7 75 3.0 NE 20 28 11 15 1012.7 1012.7 0.0
23/04:30pm 24.0 23.4 18.9 73 3.2 NE 20 28 11 15 1012.7 1012.7 0.0
23/04:00pm 23.8 21.8 18.4 72 3.4 NE 26 35 14 19 1012.6 1012.6 0.0
23/03:30pm 24.0 22.6 18.0 69 3.8 NE 22 35 12 19 1012.9 1012.9 0.0
23/03:00pm 23.6 21.0 16.9 66 4.1 NE 26 35 14 19 1013.1 1013.1 0.0
23/02:30pm 23.7 20.8 16.2 63 4.6 NE 26 39 14 21 1013.5 1013.5 0.0
23/02:00pm 24.1 21.2 16.1 61 4.9 NE 26 33 14 18 1013.9 1013.9 0.0
23/01:30pm 23.9 22.3 17.4 67 4.0 NE 22 30 12 16 1014.3 1014.3 0.0
23/01:00pm 24.0 22.2 17.0 65 4.3 NE 22 30 12 16 1014.7 1014.7 0.0
23/12:30pm 23.5 21.2 17.7 70 3.6 ENE 26 32 14 17 1014.9 1014.9 0.0
23/12:00pm 24.1 22.8 19.0 73 3.2 ENE 24 30 13 16 1015.3 1015.3 0.0
23/11:30am 23.5 22.5 17.9 71 3.5 ENE 20 26 11 14 1015.6 1015.6 0.0
23/11:00am 23.9 23.2 17.4 67 4.0 ENE 17 20 9 11 1015.8 1015.8 0.0
23/10:30am 23.3 23.3 18.0 72 3.3 E 15 20 8 11 1016.0 1016.0 0.0
23/10:00am 22.3 22.6 17.9 76 2.7 ENE 13 17 7 9 1016.2 1016.2 0.0
23/09:30am 21.6 22.6 17.8 79 2.4 NNE 9 13 5 7 1016.4 1016.4 0.0
23/09:00am 19.6 20.7 17.0 85 1.6 N 7 11 4 6 1016.6 1016.6 0.0
23/08:30am 17.6 18.4 16.3 92 0.8 NNW 7 11 4 6 1016.6 1016.6 0.0
23/08:00am 16.6 17.5 16.1 97 0.3 NW 6 9 3 5 1016.5 1016.5 0.0
23/07:30am 15.9 16.6 15.7 99 0.1 NNW 6 9 3 5 1016.3 1016.3 0.0
23/07:22am 15.6 16.6 15.4 99 0.1 NW 4 7 2 4 1016.3 1016.3 0.0
23/07:00am 14.4 15.7 14.2 99 0.1 CALM 0 0 0 0 1016.1 1016.1 0.0
23/06:30am 13.0 13.8 12.7 98 0.2 CALM 0 0 0 0 1016.0 1016.0 0.0
23/06:00am 12.9 13.7 12.7 99 0.1 CALM 0 0 0 0 1015.5 1015.5 0.0
23/05:30am 13.1 14.0 12.9 99 0.1 CALM 0 0 0 0 1015.3 1015.3 0.0
23/05:00am 13.1 14.0 12.9 99 0.1 CALM 0 0 0 0 1015.1 1015.1 0.0
23/04:30am 13.1 14.0 12.8 98 0.2 CALM 0 0 0 0 1014.9 1014.9 0.0
23/04:00am 12.7 13.5 12.4 98 0.2 CALM 0 0 0 0 1014.8 1014.8 0.0
23/03:40am 12.9 13.7 12.6 98 0.2 CALM 0 0 0 0 1014.9 1014.9 0.0
23/03:30am 13.1 14.0 12.8 98 0.2 CALM 0 0 0 0 1014.9 1014.9 0.0
23/03:22am 13.1 14.0 12.8 98 0.2 CALM 0 0 0 0 1014.9 1014.9 0.0
23/03:00am 13.3 14.2 13.0 98 0.2 CALM 0 0 0 0 1015.0 1015.0 0.0
23/02:30am 13.4 14.3 12.9 97 0.3 CALM 0 0 0 0 1015.4 1015.4 0.0
23/02:01am 13.5 14.4 13.0 97 0.3 CALM 0 0 0 0 1015.7 1015.7 0.0
23/02:00am 13.6 14.6 13.1 97 0.3 CALM 0 0 0 0 1015.7 1015.7 0.0
23/01:58am 13.7 14.7 13.2 97 0.3 CALM 0 0 0 0 1015.7 1015.7 0.0
23/01:30am 13.8 14.8 13.2 96 0.3 CALM 0 0 0 0 1016.0 1016.0 0.0
23/01:24am 13.6 14.6 13.1 97 0.3 CALM 0 0 0 0 1016.1 1016.1 0.0
23/01:00am 14.2 15.4 13.7 97 0.3 CALM 0 0 0 0 1016.5 1016.5 0.0
23/12:30am 14.4 15.6 13.8 96 0.3 CALM 0 0 0 0 1016.9 1016.9 0.0
23/12:00am 14.7 16.0 14.2 97 0.3 CALM 0 0 0 0 1017.1 1017.1 0.0
 
Date/Time
EDT
Temp
°C
App
Temp
°C
Dew
Point
°C
Rel
Hum
%
Delta-T
°C
Wind Press
QNH
hPa
Press
MSL
hPa
Rain since
9am
mm
Dir  Spd
km/h
Gust
km/h
Spd
kts
Gust
kts
22/11:30pm 15.1 16.5 14.5 96 0.3 CALM 0 0 0 0 1017.3 1017.3 0.0
22/11:25pm 15.0 16.4 14.4 96 0.3 CALM 0 0 0 0 1017.4 1017.4 0.0
22/11:08pm 15.0 16.0 14.4 96 0.3 SW 2 6 1 3 1017.6 1017.6 0.0
22/11:00pm 15.0 15.7 14.4 96 0.3 SW 4 6 2 3 1017.5 1017.5 0.0
22/10:30pm 15.5 17.0 14.7 95 0.5 CALM 0 0 0 0 1017.6 1017.6 0.0
22/10:00pm 15.8 17.5 15.2 96 0.3 CALM 0 0 0 0 1017.7 1017.7 0.0
22/09:46pm 15.6 17.1 14.6 94 0.6 CALM 0 0 0 0 1017.7 1017.7 0.0
22/09:33pm 16.0 17.7 15.2 95 0.5 CALM 0 0 0 0 1017.7 1017.7 0.0
22/09:30pm 16.4 18.2 15.6 95 0.5 CALM 0 0 0 0 1017.7 1017.7 0.0
22/09:00pm 16.7 18.6 15.7 94 0.6 CALM 0 0 0 0 1017.5 1017.5 0.0
22/08:30pm 16.7 18.5 15.4 92 0.8 CALM 0 0 0 0 1017.3 1017.3 0.0
22/08:00pm 17.6 19.4 15.6 88 1.2 CALM 0 0 0 0 1017.1 1017.1 0.0
22/07:30pm 18.9 19.8 16.5 86 1.4 ESE 7 7 4 4 1016.7 1016.7 0.0
22/07:00pm 19.7 20.6 16.5 82 1.9 ESE 7 7 4 4 1016.6 1016.6 0.0
22/06:30pm 20.8 21.1 16.0 74 2.9 ESE 9 11 5 6 1016.1 1016.1 0.0
22/06:00pm 21.4 21.5 16.4 73 3.0 ESE 11 15 6 8 1015.8 1015.8 0.0
22/05:30pm 21.7 21.0 15.5 68 3.7 ESE 13 20 7 11 1015.7 1015.7 0.0
22/05:00pm 22.1 21.1 15.7 67 3.8 E 15 20 8 11 1015.6 1015.6 0.0
22/04:30pm 22.6 21.4 16.2 67 3.9 SE 17 24 9 13 1015.7 1015.7 0.0
22/04:00pm 22.3 21.4 15.9 67 3.8 ESE 15 26 8 14 1015.6 1015.6 0.0
22/03:30pm 22.2 21.7 15.8 67 3.8 SE 13 24 7 13 1015.6 1015.6 0.0
22/03:00pm 21.7 20.5 16.0 70 3.4 SSE 17 20 9 11 1016.0 1016.0 0.0
22/02:30pm 22.9 21.8 17.4 71 3.4 SSE 19 24 10 13 1016.2 1016.2 0.0
22/02:00pm 22.8 22.0 17.0 70 3.6 SE 17 32 9 17 1016.4 1016.4 0.0
22/01:30pm 22.1 20.7 16.6 71 3.3 SE 19 28 10 15 1016.9 1016.9 0.0
22/01:00pm 22.8 21.7 17.3 71 3.4 SSE 19 26 10 14 1016.9 1016.9 0.0
22/12:30pm 22.2 20.1 16.2 69 3.6 SSE 22 30 12 16 1017.1 1017.1 0.0
22/12:00pm 22.3 20.2 16.3 69 3.6 SSE 22 32 12 17 1017.4 1017.4 0.0
22/11:30am 22.2 20.0 16.9 72 3.2 SSE 24 32 13 17 1017.8 1017.8 0.0
22/11:00am 22.8 20.8 16.4 67 3.9 SSE 22 30 12 16 1017.9 1017.9 0.0
22/10:30am 22.2 20.5 17.1 73 3.1 S 22 32 12 17 1018.0 1018.0 0.0
22/10:00am 22.2 21.0 17.1 73 3.1 S 19 28 10 15 1018.0 1018.0 0.0
22/09:30am 21.7 21.1 17.5 77 2.6 SW 17 26 9 14 1017.9 1017.9 0.0
22/09:24am 21.9 22.1 18.5 81 2.1 SW 15 20 8 11 1017.8 1017.8 0.0
22/09:07am 20.8 20.1 17.4 81 2.1 SW 17 20 9 11 1017.7 1017.7 0.0
22/09:00am 21.0 20.5 17.8 82 2.0 SW 17 22 9 12 1017.7 1017.7 0.0
22/08:30am 20.3 20.4 17.5 84 1.7 SSW 13 17 7 9 1017.6 1017.6 0.0
22/08:00am 19.5 20.2 18.0 91 0.9 WSW 11 17 6 9 1017.3 1017.3 0.0
22/07:30am 18.6 19.4 17.4 93 0.7 W 9 11 5 6 1017.1 1017.1 0.0
22/07:00am 17.8 19.0 17.3 97 0.3 WSW 7 9 4 5 1016.9 1016.9 0.0
22/06:30am 16.2 18.1 15.7 97 0.3 CALM 0 7 0 4 1016.5 1016.5 0.0
22/06:00am 16.6 17.9 16.1 97 0.3 WSW 4 7 2 4 1016.2 1016.2 0.0
22/05:30am 16.6 17.3 16.1 97 0.3 WSW 7 9 4 5 1015.8 1015.8 0.0
22/05:00am 16.7 17.6 16.2 97 0.3 WSW 6 7 3 4 1015.6 1015.6 0.0
22/04:30am 16.4 17.0 15.9 97 0.3 WSW 7 9 4 5 1015.4 1015.4 0.0
22/04:00am 16.8 17.6 16.3 97 0.3 WSW 7 11 4 6 1015.4 1015.4 0.0
22/03:30am 16.8 17.7 16.0 95 0.5 WSW 6 7 3 4 1015.3 1015.3 0.0
22/03:00am 17.5 18.4 16.7 95 0.5 SW 7 9 4 5 1015.4 1015.4 0.0
22/02:30am 17.9 18.2 17.1 95 0.5 WSW 11 15 6 8 1015.3 1015.3 0.0
22/02:06am 17.7 18.3 16.9 95 0.5 WSW 9 13 5 7 1015.7 1015.7 0.0
22/02:00am 17.7 18.3 16.9 95 0.5 WSW 9 13 5 7 1015.7 1015.7 0.0
22/01:30am 18.0 18.7 17.0 94 0.6 WSW 9 11 5 6 1015.9 1015.9 0.0
22/01:25am 18.1 19.3 17.3 95 0.5 SW 7 11 4 6 1015.9 1015.9 0.0
22/01:20am 18.0 19.1 17.2 95 0.5 SW 7 11 4 6 1015.9 1015.9 0.0
22/01:00am 18.1 19.3 17.3 95 0.5 SW 7 9 4 5 1016.1 1016.1 0.0
22/12:30am 18.0 19.2 16.9 93 0.7 SSW 6 9 3 5 1016.5 1016.5 0.0
22/12:00am 18.3 19.4 17.1 93 0.7 WSW 7 9 4 5 1016.6 1016.6 0.0
 
Date/Time
EDT
Temp
°C
App
Temp
°C
Dew
Point
°C
Rel
Hum
%
Delta-T
°C
Wind Press
QNH
hPa
Press
MSL
hPa
Rain since
9am
mm
Dir  Spd
km/h
Gust
km/h
Spd
kts
Gust
kts
21/11:30pm 18.0 19.2 16.9 93 0.7 SW 6 9 3 5 1016.6 1016.6 0.0
21/11:27pm 18.0 19.2 16.9 93 0.7 SW 6 9 3 5 1016.6 1016.6 0.0
21/11:00pm 18.4 18.4 17.1 92 0.8 WSW 13 15 7 8 1016.6 1016.6 0.0
21/10:30pm 18.9 19.0 17.4 91 0.9 WSW 13 15 7 8 1016.9 1016.9 0.0
21/10:00pm 18.9 20.1 17.4 91 0.9 W 7 9 4 5 1017.0 1017.0 0.0
21/09:30pm 19.0 19.5 17.5 91 0.9 SW 11 15 6 8 1016.5 1016.5 0.0
21/09:17pm 19.2 18.6 17.5 90 1.0 SW 17 20 9 11 1016.4 1016.4 0.0
21/09:00pm 19.1 20.0 17.6 91 0.9 WSW 9 15 5 8 1016.1 1016.1 0.0
21/08:30pm 19.4 20.5 17.9 91 0.9 SW 9 13 5 7 1015.9 1015.9 0.0
21/08:00pm 19.4 20.4 17.7 90 1.0 SW 9 13 5 7 1015.7 1015.7 0.0
21/07:30pm 19.4 20.3 17.5 89 1.2 WSW 9 11 5 6 1015.3 1015.3 0.0
21/07:00pm 19.5 19.7 17.6 89 1.2 SW 13 17 7 9 1014.7 1014.7 0.0
21/06:54pm 19.7 19.9 17.7 88 1.2 SW 13 17 7 9 1014.7 1014.7 0.0
21/06:30pm 19.8 20.0 17.6 87 1.3 SSW 13 19 7 10 1014.7 1014.7 0.0
21/06:26pm 19.8 20.4 17.6 87 1.3 SSW 11 15 6 8 1014.7 1014.7 0.0
21/06:00pm 19.9 19.7 17.7 87 1.4 SSW 15 20 8 11 1014.5 1014.5 0.0
21/05:30pm 20.0 18.8 17.4 85 1.6 SSW 20 30 11 16 1014.0 1014.0 0.0
21/05:24pm 20.1 18.9 17.5 85 1.6 SSW 20 30 11 16 1013.9 1013.9 0.0
21/05:00pm 20.5 19.4 17.7 84 1.7 SSW 20 30 11 16 1013.6 1013.6 0.0
21/04:30pm 20.7 18.9 17.9 84 1.7 S 24 33 13 18 1013.3 1013.3 0.0
21/04:00pm 20.8 18.1 17.6 82 2.0 S 28 39 15 21 1013.2 1013.2 0.0
21/03:34pm 21.7 19.1 17.9 79 2.4 S 28 48 15 26 1012.9 1012.9 0.0
21/03:30pm 21.9 20.1 17.9 78 2.5 S 24 37 13 20 1012.9 1012.9 0.0
21/03:00pm 21.9 21.2 18.7 82 2.0 S 20 30 11 16 1012.9 1012.9 0.0
21/02:47pm 21.0 19.3 18.0 83 1.9 S 24 32 13 17 1013.1 1013.1 0.0
21/02:30pm 20.8 19.7 17.8 83 1.9 SSE 20 26 11 14 1013.4 1013.4 0.0
21/02:09pm 20.8 18.6 17.8 83 1.9 SSE 26 37 14 20 1013.8 1013.8 0.0
21/02:00pm 21.2 19.5 18.2 83 1.9 S 24 32 13 17 1013.7 1013.7 0.0
21/01:47pm 21.5 20.1 18.7 84 1.8 S 24 32 13 17 1013.7 1013.7 0.0
21/01:30pm 21.4 21.0 18.8 85 1.6 S 19 26 10 14 1013.9 1013.9 0.0
21/01:21pm 21.1 20.4 18.3 84 1.7 S 19 26 10 14 1014.1 1014.1 0.0
21/01:16pm 21.1 20.5 18.5 85 1.6 S 19 26 10 14 1014.1 1014.1 0.0
21/01:00pm 21.2 20.8 18.0 82 2.0 SSE 17 24 9 13 1014.3 1014.3 0.0
21/12:30pm 21.0 22.5 18.9 88 1.3 S 9 13 5 7 1014.4 1014.4 0.0
21/12:22pm 21.0 22.6 19.1 89 1.2 SSW 9 13 5 7 1014.5 1014.5 0.0
21/12:00pm 20.6 23.2 18.5 88 1.3 W 2 7 1 4 1014.7 1014.7 0.0
21/11:30am 20.3 22.2 19.0 92 0.8 WNW 7 11 4 6 1015.0 1015.0 0.0
21/11:00am 19.9 22.1 19.1 95 0.5 NW 6 9 3 5 1015.2 1015.2 0.0
21/10:30am 19.4 20.8 18.7 96 0.4 N 9 11 5 6 1015.3 1015.3 0.0
21/10:00am 19.2 20.9 18.5 96 0.4 N 7 11 4 6 1015.2 1015.2 0.0
21/09:40am 19.2 21.2 18.7 97 0.3 NNW 6 9 3 5 1015.2 1015.2 0.0
21/09:30am 19.1 21.0 18.6 97 0.3 NNW 6 9 3 5 1015.2 1015.2 0.0
21/09:08am 19.0 21.0 18.7 98 0.2 NW 6 9 3 5 1014.8 1014.8 0.0
21/09:00am 18.9 20.8 18.6 98 0.2 NNW 6 9 3 5 1014.8 1014.8 16.4
21/08:30am 18.8 20.5 18.5 98 0.2 N 7 11 4 6 1014.7 1014.7 16.4
21/08:02am 18.3 20.0 18.1 99 0.1 WNW 6 7 3 4 1014.7 1014.7 16.2
21/08:00am 18.3 20.0 18.1 99 0.1 WNW 6 7 3 4 1014.6 1014.6 16.2
21/07:30am 18.1 18.8 17.9 99 0.1 WNW 11 15 6 8 1014.6 1014.6 16.2

Other Formats:

Comma delimited format used in spreadsheet applications
http://www.bom.gov.au/fwo/IDN60801/IDN60801.94786.axf

JavaScript Object Notation format (JSON) in row-major order
http://www.bom.gov.au/fwo/IDN60801/IDN60801.94786.json